createdAt,value
2023-02-19T05:00:30.472Z,99.79
2023-02-19T05:01:31.504Z,99.58
2023-02-19T05:02:31.489Z,99.68
2023-02-19T05:03:31.452Z,99.99
2023-02-19T05:04:31.528Z,99.90
2023-02-19T05:05:31.429Z,99.06
2023-02-19T05:06:31.440Z,99.16
2023-02-19T05:07:31.402Z,98.90
2023-02-19T05:08:31.399Z,99.11
2023-02-19T05:09:31.379Z,99.01
2023-02-19T05:10:31.382Z,99.11
2023-02-19T05:11:31.375Z,99.21
2023-02-19T05:12:31.361Z,99.52
2023-02-19T05:13:31.357Z,99.11
2023-02-19T05:14:31.329Z,99.52
2023-02-19T05:15:31.329Z,99.42
2023-02-19T05:16:31.336Z,99.42
2023-02-19T05:17:31.295Z,99.73
2023-02-19T05:18:31.314Z,99.84
2023-02-19T05:19:31.313Z,99.42
2023-02-19T05:20:31.284Z,99.42
2023-02-19T05:21:31.263Z,99.73
2023-02-19T05:22:31.270Z,99.73
2023-02-19T05:23:31.235Z,99.52
2023-02-19T05:24:31.222Z,99.42
2023-02-19T05:25:31.248Z,99.52
2023-02-19T05:26:31.236Z,99.42
2023-02-19T05:27:31.183Z,99.63
2023-02-19T05:28:31.205Z,99.77
2023-02-19T05:29:31.208Z,99.67
2023-02-19T05:30:31.174Z,99.99
2023-02-19T05:31:31.346Z,99.99
2023-02-19T05:32:31.135Z,99.99
2023-02-19T05:33:31.125Z,99.99
2023-02-19T05:34:31.119Z,99.99
2023-02-19T05:35:31.120Z,99.99
2023-02-19T05:36:31.098Z,99.84
2023-02-19T05:37:31.118Z,99.99
2023-02-19T05:38:31.083Z,99.94
2023-02-19T05:39:31.060Z,99.73
2023-02-19T05:40:31.065Z,99.84
2023-02-19T05:41:31.087Z,99.94
2023-02-19T05:42:31.058Z,99.99
2023-02-19T05:43:31.023Z,99.99
2023-02-19T05:44:31.020Z,99.77
2023-02-19T05:45:30.994Z,99.57
2023-02-19T05:46:31.528Z,99.88
2023-02-19T05:47:30.947Z,99.88
2023-02-19T05:48:30.976Z,99.99
2023-02-19T05:49:30.912Z,99.99
2023-02-19T05:50:30.916Z,99.88
2023-02-19T05:51:30.918Z,99.21
2023-02-19T05:52:30.871Z,99.21
2023-02-19T05:53:30.888Z,99.36
2023-02-19T05:54:30.841Z,99.26
2023-02-19T05:55:30.856Z,99.15
2023-02-19T05:56:30.857Z,99.57
2023-02-19T05:57:30.812Z,99.46
2023-02-19T05:58:30.823Z,99.42
2023-02-19T05:59:30.808Z,99.84
2023-02-19T06:00:30.797Z,99.73
2023-02-19T06:01:30.789Z,99.52
2023-02-19T06:02:30.771Z,99.32
2023-02-19T06:03:30.766Z,99.11
2023-02-19T06:04:30.750Z,99.11
2023-02-19T06:05:30.736Z,98.69
2023-02-19T06:06:30.738Z,98.59
2023-02-19T06:07:30.736Z,98.74
2023-02-19T06:08:30.717Z,98.69
2023-02-19T06:09:30.687Z,99.42
2023-02-19T06:10:30.696Z,98.48
2023-02-19T06:11:30.680Z,98.48
2023-02-19T06:12:30.661Z,98.59
2023-02-19T06:13:30.646Z,98.53
2023-02-19T06:14:30.681Z,98.90
2023-02-19T06:15:30.640Z,98.90
2023-02-19T06:16:30.625Z,99.42
2023-02-19T06:17:30.599Z,99.63
2023-02-19T06:18:30.622Z,99.21
2023-02-19T06:19:30.598Z,99.11
2023-02-19T06:20:30.588Z,98.38
2023-02-19T06:21:30.580Z,99.01
2023-02-19T06:22:30.554Z,99.32
2023-02-19T06:23:30.536Z,99.01
2023-02-19T06:24:30.605Z,99.11
2023-02-19T06:25:30.517Z,98.48
2023-02-19T06:26:30.562Z,97.91
2023-02-19T06:27:30.506Z,98.43
2023-02-19T06:28:30.506Z,99.05
2023-02-19T06:29:30.490Z,98.84
2023-02-19T06:30:30.514Z,98.63
2023-02-19T06:31:30.570Z,98.43
2023-02-19T06:32:30.504Z,98.74
2023-02-19T06:33:30.440Z,98.94
2023-02-19T06:34:30.446Z,98.84
2023-02-19T06:35:30.421Z,99.42
2023-02-19T06:36:30.454Z,99.67
2023-02-19T06:37:30.399Z,99.46
2023-02-19T06:38:30.383Z,99.15
2023-02-19T06:39:30.372Z,98.74
2023-02-19T06:40:30.361Z,99.46
2023-02-19T06:41:30.372Z,99.94
2023-02-19T06:42:30.340Z,98.53
2023-02-19T06:43:30.328Z,98.74
2023-02-19T06:44:30.330Z,98.69
2023-02-19T06:45:30.309Z,98.43
2023-02-19T06:46:30.371Z,98.01
2023-02-19T06:47:30.295Z,98.53
2023-02-19T06:48:30.288Z,98.59
2023-02-19T06:49:30.265Z,99.21
2023-02-19T06:50:30.263Z,99.21
2023-02-19T06:51:30.269Z,99.21
2023-02-19T06:52:30.236Z,98.48
2023-02-19T06:53:30.240Z,97.75
2023-02-19T06:54:30.227Z,97.86
2023-02-19T06:55:30.224Z,97.96
2023-02-19T06:56:30.204Z,97.75
2023-02-19T06:57:30.209Z,97.44
2023-02-19T06:58:30.195Z,97.55
2023-02-19T06:59:30.176Z,98.17
2023-02-19T07:00:30.236Z,98.48
2023-02-19T07:01:30.141Z,97.55
2023-02-19T07:02:30.148Z,97.55
2023-02-19T07:03:30.137Z,97.75
2023-02-19T07:04:30.194Z,97.96
2023-02-19T07:05:30.113Z,97.55
2023-02-19T07:06:30.090Z,97.75
2023-02-19T07:07:30.126Z,97.86
2023-02-19T07:08:30.073Z,98.38
2023-02-19T07:09:30.131Z,97.96
2023-02-19T07:10:30.124Z,98.48
2023-02-19T07:11:30.128Z,98.48
2023-02-19T07:12:30.057Z,98.07
2023-02-19T07:13:30.026Z,97.55
2023-02-19T07:14:29.990Z,97.24
2023-02-19T07:15:29.994Z,97.65
2023-02-19T07:16:30.162Z,97.13
2023-02-19T07:17:30.133Z,97.55
2023-02-19T07:18:29.963Z,97.13
2023-02-19T07:19:29.944Z,96.30
2023-02-19T07:20:29.947Z,96.72
2023-02-19T07:21:29.925Z,97.13
2023-02-19T07:22:29.958Z,96.61
2023-02-19T07:23:29.921Z,97.24
2023-02-19T07:24:29.885Z,96.47
2023-02-19T07:25:29.899Z,96.98
2023-02-19T07:26:29.872Z,96.36
2023-02-19T07:27:29.884Z,95.94
2023-02-19T07:28:29.868Z,96.67
2023-02-19T07:29:29.866Z,96.57
2023-02-19T07:30:29.902Z,96.94
2023-02-19T07:31:30.012Z,95.94
2023-02-19T07:32:29.860Z,95.63
2023-02-19T07:33:29.843Z,96.15
2023-02-19T07:34:29.802Z,95.94
2023-02-19T07:35:29.824Z,95.94
2023-02-19T07:36:29.774Z,96.47
2023-02-19T07:37:29.775Z,96.15
2023-02-19T07:38:29.763Z,97.19
2023-02-19T07:39:29.777Z,97.09
2023-02-19T07:40:29.747Z,96.47
2023-02-19T07:41:29.738Z,96.47
2023-02-19T07:42:29.752Z,96.15
2023-02-19T07:43:29.699Z,95.94
2023-02-19T07:44:29.704Z,96.36
2023-02-19T07:45:29.713Z,96.67
2023-02-19T07:46:29.683Z,96.36
2023-02-19T07:47:29.703Z,96.15
2023-02-19T07:48:29.641Z,95.84
2023-02-19T07:49:29.722Z,95.69
2023-02-19T07:50:29.615Z,96.21
2023-02-19T07:51:29.627Z,95.69
2023-02-19T07:52:29.694Z,96.11
2023-02-19T07:53:29.621Z,95.17
2023-02-19T07:54:29.617Z,95.07
2023-02-19T07:55:29.589Z,94.55
2023-02-19T07:56:29.674Z,94.20
2023-02-19T07:57:29.607Z,93.99
2023-02-19T07:58:29.557Z,93.68
2023-02-19T07:59:29.541Z,93.47
2023-02-19T08:00:29.523Z,93.22
2023-02-19T08:01:29.587Z,91.97
2023-02-19T08:02:29.524Z,92.03
2023-02-19T08:03:29.547Z,91.10
2023-02-19T08:04:29.510Z,91.62
2023-02-19T08:05:29.493Z,90.54
2023-02-19T08:06:29.514Z,89.61
2023-02-19T08:07:29.500Z,89.29
2023-02-19T08:08:29.445Z,89.81
2023-02-19T08:09:29.530Z,90.23
2023-02-19T08:10:29.488Z,90.44
2023-02-19T08:11:29.420Z,89.92
2023-02-19T08:12:29.443Z,88.94
2023-02-19T08:13:29.483Z,88.32
2023-02-19T08:14:29.398Z,87.35
2023-02-19T08:15:29.388Z,86.83
2023-02-19T08:16:42.608Z,87.70
2023-02-19T08:17:29.382Z,87.07
2023-02-19T08:18:29.443Z,87.63
2023-02-19T08:19:29.381Z,88.57
2023-02-19T08:20:29.548Z,88.73
2023-02-19T08:21:29.534Z,88.21
2023-02-19T08:22:29.285Z,88.53
2023-02-19T08:23:29.276Z,87.66
2023-02-19T08:24:29.266Z,86.93
2023-02-19T08:25:29.268Z,87.66
2023-02-19T08:26:29.456Z,86.83
2023-02-19T08:27:29.259Z,86.89
2023-02-19T08:28:29.793Z,86.47
2023-02-19T08:29:29.231Z,85.96
2023-02-19T08:30:29.445Z,86.07
2023-02-19T08:31:29.340Z,84.61
2023-02-19T08:32:29.198Z,84.30
2023-02-19T08:33:29.376Z,86.31
2023-02-19T08:34:29.167Z,85.55
2023-02-19T08:35:29.163Z,85.96
2023-02-19T08:36:29.129Z,85.61
2023-02-19T08:37:29.152Z,84.43
2023-02-19T08:38:29.156Z,84.78
2023-02-19T08:39:29.118Z,86.17
2023-02-19T08:40:29.086Z,85.86
2023-02-19T08:41:29.140Z,83.95
2023-02-19T08:42:29.158Z,83.64
2023-02-19T08:43:29.100Z,85.38
2023-02-19T08:44:29.089Z,85.86
2023-02-19T08:45:29.027Z,84.27
2023-02-19T08:46:29.022Z,83.75
2023-02-19T08:47:29.116Z,84.09
2023-02-19T08:48:29.123Z,84.20
2023-02-19T08:49:29.018Z,83.81
2023-02-19T08:50:29.039Z,81.32
2023-02-19T08:51:29.020Z,79.80
2023-02-19T08:52:28.948Z,81.68
2023-02-19T08:53:29.023Z,83.51
2023-02-19T08:54:28.971Z,84.13
2023-02-19T08:55:29.002Z,85.21
2023-02-19T08:56:28.915Z,84.55
2023-02-19T08:57:28.935Z,85.06
2023-02-19T08:58:28.973Z,84.44
2023-02-19T08:59:28.904Z,84.75
2023-02-19T09:00:28.869Z,85.44
2023-02-19T09:01:28.899Z,83.44
2023-02-19T09:02:28.857Z,83.26
2023-02-19T09:03:28.836Z,83.54
2023-02-19T09:04:28.893Z,82.46
2023-02-19T09:05:28.812Z,80.57
2023-02-19T09:06:28.858Z,80.60
2023-02-19T09:07:28.800Z,79.77
2023-02-19T09:08:28.821Z,77.63
2023-02-19T09:09:28.787Z,77.22
2023-02-19T09:10:28.811Z,78.22
2023-02-19T09:11:28.821Z,76.46
2023-02-19T09:12:28.836Z,76.29
2023-02-19T09:13:28.770Z,75.63
2023-02-19T09:14:28.716Z,77.87
2023-02-19T09:15:28.750Z,79.29
2023-02-19T09:16:28.686Z,81.19
2023-02-19T09:17:28.678Z,81.64
2023-02-19T09:18:28.723Z,81.33
2023-02-19T09:19:28.668Z,81.12
2023-02-19T09:20:28.654Z,82.09
2023-02-19T09:21:28.668Z,82.60
2023-02-19T09:22:28.648Z,82.81
2023-02-19T09:23:28.677Z,82.50
2023-02-19T09:24:28.684Z,83.02
2023-02-19T09:25:28.624Z,83.58
2023-02-19T09:26:28.586Z,83.89
2023-02-19T09:27:28.584Z,82.67
2023-02-19T09:28:28.581Z,81.43
2023-02-19T09:29:28.601Z,81.95
2023-02-19T09:30:28.597Z,80.46
2023-02-19T09:31:28.668Z,80.36
2023-02-19T09:32:28.534Z,80.53
2023-02-19T09:33:28.521Z,79.33
2023-02-19T09:34:28.517Z,79.77
2023-02-19T09:35:28.492Z,80.53
2023-02-19T09:36:28.480Z,78.98
2023-02-19T09:37:28.469Z,78.84
2023-02-19T09:38:28.477Z,79.60
2023-02-19T09:39:28.484Z,78.74
2023-02-19T09:40:28.426Z,79.08
2023-02-19T09:41:28.427Z,80.11
2023-02-19T09:42:28.425Z,80.94
2023-02-19T09:43:28.438Z,80.05
2023-02-19T09:44:28.418Z,80.26
2023-02-19T09:45:28.391Z,80.32
2023-02-19T09:46:28.436Z,81.70
2023-02-19T09:47:28.396Z,80.77
2023-02-19T09:48:28.406Z,79.43
2023-02-19T09:49:28.451Z,80.32
2023-02-19T09:50:28.384Z,79.39
2023-02-19T09:51:28.352Z,78.56
2023-02-19T09:52:28.313Z,79.80
2023-02-19T09:53:28.316Z,80.22
2023-02-19T09:54:28.317Z,77.84
2023-02-19T09:55:28.331Z,78.36
2023-02-19T09:56:28.288Z,78.91
2023-02-19T09:57:28.255Z,79.63
2023-02-19T09:58:28.266Z,78.36
2023-02-19T09:59:28.285Z,77.56
2023-02-19T10:00:28.241Z,75.98
2023-02-19T10:01:28.254Z,77.15
2023-02-19T10:02:28.201Z,76.26
2023-02-19T10:03:28.232Z,76.81
2023-02-19T10:04:28.219Z,76.73
2023-02-19T10:05:28.266Z,73.81
2023-02-19T10:06:28.197Z,75.19
2023-02-19T10:07:28.181Z,74.77
2023-02-19T10:08:28.152Z,76.26
2023-02-19T10:09:28.161Z,76.77
2023-02-19T10:10:28.149Z,73.71
2023-02-19T10:11:28.122Z,68.77
2023-02-19T10:12:28.107Z,66.55
2023-02-19T10:13:28.079Z,63.65
2023-02-19T10:14:28.116Z,62.98
2023-02-19T10:15:28.081Z,61.92
2023-02-19T10:16:28.076Z,60.95
2023-02-19T10:17:28.071Z,63.17
2023-02-19T10:18:28.072Z,64.22
2023-02-19T10:19:28.041Z,66.58
2023-02-19T10:20:28.047Z,68.55
2023-02-19T10:21:28.022Z,69.82
2023-02-19T10:22:28.000Z,71.16
2023-02-19T10:23:27.999Z,70.10
2023-02-19T10:24:27.968Z,70.72
2023-02-19T10:25:27.978Z,72.30
2023-02-19T10:26:27.986Z,73.67
2023-02-19T10:27:27.940Z,75.26
2023-02-19T10:28:27.939Z,76.29
2023-02-19T10:29:27.936Z,72.71
2023-02-19T10:30:27.942Z,70.54
2023-02-19T10:31:28.035Z,71.64
2023-02-19T10:32:27.876Z,71.54
2023-02-19T10:33:27.913Z,71.98
2023-02-19T10:34:27.941Z,72.02
2023-02-19T10:35:27.868Z,70.07
2023-02-19T10:36:29.847Z,67.70
2023-02-19T10:37:27.811Z,69.41
2023-02-19T10:38:27.808Z,68.59
2023-02-19T10:39:27.845Z,69.85
2023-02-19T10:40:27.821Z,70.31
2023-02-19T10:41:27.781Z,68.90
2023-02-19T10:42:27.766Z,68.35
2023-02-19T10:43:27.767Z,68.27
2023-02-19T10:44:27.752Z,69.75
2023-02-19T10:45:27.751Z,70.99
2023-02-19T10:46:27.761Z,70.40
2023-02-19T10:47:27.738Z,72.47
2023-02-19T10:48:27.704Z,68.39
2023-02-19T10:49:27.760Z,63.56
2023-02-19T10:50:27.715Z,63.44
2023-02-19T10:51:27.772Z,61.08
2023-02-19T10:52:27.674Z,62.58
2023-02-19T10:53:27.659Z,61.70
2023-02-19T10:54:27.670Z,62.24
2023-02-19T10:55:27.645Z,62.52
2023-02-19T10:56:27.620Z,60.69
2023-02-19T10:57:27.616Z,59.76
2023-02-19T10:58:27.611Z,57.71
2023-02-19T10:59:27.643Z,60.89
2023-02-19T11:00:27.627Z,60.83
2023-02-19T11:01:27.608Z,60.57
2023-02-19T11:02:27.559Z,61.32
2023-02-19T11:03:27.553Z,61.42
2023-02-19T11:04:27.594Z,63.02
2023-02-19T11:05:27.532Z,62.07
2023-02-19T11:06:27.507Z,63.96
2023-02-19T11:07:27.490Z,64.47
2023-02-19T11:08:27.498Z,62.49
2023-02-19T11:09:27.508Z,58.90
2023-02-19T11:10:27.512Z,59.98
2023-02-19T11:11:27.457Z,58.21
2023-02-19T11:12:27.424Z,56.56
2023-02-19T11:13:27.427Z,57.64
2023-02-19T11:14:27.584Z,56.20
2023-02-19T11:15:27.436Z,56.00
2023-02-19T11:16:27.493Z,57.67
2023-02-19T11:17:27.436Z,59.75
2023-02-19T11:18:27.384Z,59.50
2023-02-19T11:19:27.360Z,59.33
2023-02-19T11:20:27.366Z,59.58
2023-02-19T11:21:27.382Z,59.74
2023-02-19T11:22:27.372Z,61.31
2023-02-19T11:23:27.329Z,62.57
2023-02-19T11:24:27.351Z,62.47
2023-02-19T11:25:27.305Z,63.32
2023-02-19T11:26:27.334Z,61.46
2023-02-19T11:27:27.290Z,60.84
2023-02-19T11:28:27.278Z,61.66
2023-02-19T11:29:27.243Z,60.53
2023-02-19T11:30:27.293Z,61.18
2023-02-19T11:31:27.405Z,60.25
2023-02-19T11:32:27.352Z,61.96
2023-02-19T11:33:27.341Z,63.22
2023-02-19T11:34:27.197Z,64.49
2023-02-19T11:35:27.206Z,63.60
2023-02-19T11:36:29.472Z,59.93
2023-02-19T11:37:27.164Z,57.64
2023-02-19T11:38:27.151Z,59.34
2023-02-19T11:39:27.157Z,58.50
2023-02-19T11:40:27.136Z,60.06
2023-02-19T11:41:27.174Z,60.63
2023-02-19T11:42:29.268Z,61.93
2023-02-19T11:43:27.120Z,62.52
2023-02-19T11:44:27.098Z,61.71
2023-02-19T11:45:27.100Z,57.10
2023-02-19T11:46:27.114Z,57.36
2023-02-19T11:47:27.071Z,59.31
2023-02-19T11:48:28.623Z,58.50
2023-02-19T11:49:27.057Z,59.24
2023-02-19T11:50:27.038Z,60.87
2023-02-19T11:51:27.015Z,61.72
2023-02-19T11:52:27.044Z,62.65
2023-02-19T11:53:27.035Z,61.96
2023-02-19T11:54:27.010Z,63.71
2023-02-19T11:55:27.005Z,62.52
2023-02-19T11:56:26.958Z,59.86
2023-02-19T11:57:26.969Z,59.31
2023-02-19T11:58:26.969Z,57.93
2023-02-19T11:59:27.585Z,57.49
2023-02-19T12:00:26.969Z,57.00
2023-02-19T12:01:26.904Z,55.62
2023-02-19T12:02:26.929Z,58.03
2023-02-19T12:03:26.944Z,57.00
2023-02-19T12:04:26.891Z,55.33
2023-02-19T12:05:26.945Z,56.51
2023-02-19T12:06:26.888Z,56.56
2023-02-19T12:07:26.836Z,54.77
2023-02-19T12:08:26.870Z,54.90
2023-02-19T12:09:26.805Z,53.69
2023-02-19T12:10:26.814Z,55.33
2023-02-19T12:11:26.839Z,57.26
2023-02-19T12:12:26.794Z,58.93
2023-02-19T12:13:26.802Z,59.17
2023-02-19T12:14:26.766Z,60.43
2023-02-19T12:15:26.749Z,60.97
2023-02-19T12:16:26.800Z,62.21
2023-02-19T12:17:26.761Z,61.05
2023-02-19T12:18:26.726Z,60.50
2023-02-19T12:19:26.732Z,58.62
2023-02-19T12:20:26.717Z,58.67
2023-02-19T12:21:26.689Z,57.50
2023-02-19T12:22:26.689Z,58.18
2023-02-19T12:23:26.691Z,56.26
2023-02-19T12:24:26.656Z,54.28
2023-02-19T12:25:26.645Z,53.66
2023-02-19T12:26:26.626Z,52.90
2023-02-19T12:27:26.609Z,51.31
2023-02-19T12:28:26.609Z,51.85
2023-02-19T12:29:26.607Z,51.36
2023-02-19T12:30:26.679Z,54.44
2023-02-19T12:31:26.604Z,51.44
2023-02-19T12:32:26.566Z,51.08
2023-02-19T12:33:26.543Z,50.34
2023-02-19T12:34:26.562Z,49.67
2023-02-19T12:35:26.559Z,49.96
2023-02-19T12:36:26.532Z,48.73
2023-02-19T12:37:26.521Z,49.80
2023-02-19T12:38:26.488Z,49.08
2023-02-19T12:39:26.475Z,49.51
2023-02-19T12:40:26.489Z,48.85
2023-02-19T12:41:26.477Z,48.19
2023-02-19T12:42:26.448Z,47.66
2023-02-19T12:43:26.425Z,47.30
2023-02-19T12:44:26.430Z,48.73
2023-02-19T12:45:26.413Z,48.48
2023-02-19T12:46:26.474Z,48.25
2023-02-19T12:47:26.405Z,49.32
2023-02-19T12:48:26.391Z,48.33
2023-02-19T12:49:26.367Z,46.90
2023-02-19T12:50:26.392Z,49.77
2023-02-19T12:51:26.356Z,51.77
2023-02-19T12:52:26.351Z,50.28
2023-02-19T12:53:27.107Z,51.53
2023-02-19T12:54:26.320Z,52.22
2023-02-19T12:55:26.335Z,53.28
2023-02-19T12:56:26.309Z,51.53
2023-02-19T12:57:26.295Z,51.33
2023-02-19T12:58:26.303Z,52.81
2023-02-19T12:59:26.266Z,55.13
2023-02-19T13:00:26.276Z,55.87
2023-02-19T13:01:26.328Z,56.00
2023-02-19T13:02:26.240Z,58.37
2023-02-19T13:03:26.229Z,57.09
2023-02-19T13:04:26.228Z,56.57
2023-02-19T13:05:26.217Z,56.59
2023-02-19T13:06:26.187Z,57.62
2023-02-19T13:07:26.182Z,56.93
2023-02-19T13:08:26.175Z,57.37
2023-02-19T13:09:26.162Z,57.89
2023-02-19T13:10:26.175Z,58.53
2023-02-19T13:11:26.138Z,59.46
2023-02-19T13:12:26.132Z,60.31
2023-02-19T13:13:26.118Z,60.21
2023-02-19T13:14:26.110Z,60.11
2023-02-19T13:15:26.124Z,60.00
2023-02-19T13:16:26.110Z,60.42
2023-02-19T13:17:26.069Z,60.28
2023-02-19T13:18:26.069Z,59.46
2023-02-19T13:19:26.066Z,59.67
2023-02-19T13:20:26.062Z,58.64
2023-02-19T13:21:26.054Z,57.09
2023-02-19T13:22:26.068Z,54.53
2023-02-19T13:23:26.016Z,51.76
2023-02-19T13:24:26.007Z,49.95
2023-02-19T13:25:25.984Z,48.69
2023-02-19T13:26:26.015Z,49.10
2023-02-19T13:27:25.984Z,49.31
2023-02-19T13:28:25.969Z,48.88
2023-02-19T13:29:25.972Z,48.22
2023-02-19T13:30:25.983Z,47.30
2023-02-19T13:31:26.000Z,47.81
2023-02-19T13:32:25.914Z,48.47
2023-02-19T13:33:25.894Z,49.64
2023-02-19T13:34:25.883Z,50.34
2023-02-19T13:35:25.885Z,48.57
2023-02-19T13:36:25.868Z,48.96
2023-02-19T13:37:25.877Z,48.55
2023-02-19T13:38:26.563Z,49.41
2023-02-19T13:39:27.045Z,49.13
2023-02-19T13:40:25.831Z,49.56
2023-02-19T13:41:25.799Z,50.43
2023-02-19T13:42:25.819Z,52.01
2023-02-19T13:43:25.791Z,53.53
2023-02-19T13:44:25.879Z,54.46
2023-02-19T13:45:25.771Z,55.72
2023-02-19T13:46:25.818Z,54.87
2023-02-19T13:47:25.752Z,55.62
2023-02-19T13:48:25.736Z,55.95
2023-02-19T13:49:25.729Z,56.59
2023-02-19T13:50:25.720Z,56.18
2023-02-19T13:51:25.707Z,55.23
2023-02-19T13:52:25.723Z,54.58
2023-02-19T13:53:25.692Z,53.66
2023-02-19T13:54:25.718Z,54.92
2023-02-19T13:55:25.657Z,55.95
2023-02-19T13:56:25.651Z,55.15
2023-02-19T13:57:25.631Z,55.07
2023-02-19T13:58:25.745Z,55.49
2023-02-19T13:59:25.617Z,56.41
2023-02-19T14:00:25.657Z,56.21
2023-02-19T14:01:25.621Z,56.34
2023-02-19T14:02:25.600Z,56.65
2023-02-19T14:03:25.615Z,56.96
2023-02-19T14:04:25.605Z,57.26
2023-02-19T14:05:25.542Z,57.89
2023-02-19T14:06:27.849Z,57.89
2023-02-19T14:07:25.526Z,58.40
2023-02-19T14:08:25.529Z,57.78
2023-02-19T14:09:25.578Z,58.20
2023-02-19T14:10:25.518Z,58.20
2023-02-19T14:11:25.523Z,58.61
2023-02-19T14:12:25.495Z,59.02
2023-02-19T14:13:25.504Z,58.71
2023-02-19T14:14:25.471Z,58.40
2023-02-19T14:15:25.518Z,57.89
2023-02-19T14:16:25.432Z,58.09
2023-02-19T14:17:25.436Z,58.09
2023-02-19T14:18:25.410Z,57.57
2023-02-19T14:19:25.419Z,58.30
2023-02-19T14:20:25.409Z,57.86
2023-02-19T14:21:25.384Z,56.62
2023-02-19T14:22:25.381Z,55.21
2023-02-19T14:23:25.352Z,55.33
2023-02-19T14:24:25.468Z,55.74
2023-02-19T14:25:25.354Z,55.57
2023-02-19T14:26:25.333Z,55.98
2023-02-19T14:27:25.343Z,56.10
2023-02-19T14:28:25.322Z,55.90
2023-02-19T14:29:25.306Z,55.80
2023-02-19T14:30:25.294Z,55.80
2023-02-19T14:31:25.394Z,55.59
2023-02-19T14:32:25.310Z,56.21
2023-02-19T14:33:25.242Z,56.65
2023-02-19T14:34:25.261Z,56.96
2023-02-19T14:35:25.282Z,56.96
2023-02-19T14:36:25.258Z,57.26
2023-02-19T14:37:25.256Z,57.57
2023-02-19T14:38:25.220Z,57.60
2023-02-19T14:39:25.171Z,58.33
2023-02-19T14:40:25.172Z,58.22
2023-02-19T14:41:25.191Z,58.22
2023-02-19T14:42:25.190Z,58.12
2023-02-19T14:43:25.165Z,58.64
2023-02-19T14:44:25.135Z,58.01
2023-02-19T14:45:25.111Z,58.22
2023-02-19T14:46:25.156Z,58.12
2023-02-19T14:47:25.108Z,58.33
2023-02-19T14:48:25.277Z,58.84
2023-02-19T14:49:25.221Z,59.15
2023-02-19T14:50:25.138Z,58.12
2023-02-19T14:51:25.091Z,58.12
2023-02-19T14:52:25.111Z,58.01
2023-02-19T14:53:25.065Z,58.84
2023-02-19T14:54:25.017Z,58.12
2023-02-19T14:55:25.015Z,57.91
2023-02-19T14:56:25.039Z,57.99
2023-02-19T14:57:25.000Z,58.17
2023-02-19T14:58:24.980Z,57.24
2023-02-19T14:59:24.989Z,56.80
2023-02-19T15:00:24.970Z,57.01
2023-02-19T15:01:25.029Z,55.33
2023-02-19T15:02:24.945Z,55.21
2023-02-19T15:03:24.930Z,54.79
2023-02-19T15:04:24.948Z,54.71
2023-02-19T15:05:24.935Z,54.07
2023-02-19T15:06:24.912Z,54.58
2023-02-19T15:07:24.877Z,54.38
2023-02-19T15:08:24.880Z,54.38
2023-02-19T15:09:24.855Z,54.82
2023-02-19T15:10:24.865Z,54.92
2023-02-19T15:11:24.984Z,55.54
2023-02-19T15:12:24.842Z,55.02
2023-02-19T15:13:24.843Z,54.48
2023-02-19T15:14:24.825Z,55.13
2023-02-19T15:15:24.815Z,55.33
2023-02-19T15:16:25.902Z,56.16
2023-02-19T15:17:24.782Z,54.79
2023-02-19T15:18:24.776Z,54.38
2023-02-19T15:19:24.788Z,54.79
2023-02-19T15:20:24.762Z,53.89
2023-02-19T15:21:24.757Z,54.92
2023-02-19T15:22:24.756Z,54.84
2023-02-19T15:23:24.700Z,54.12
2023-02-19T15:24:24.699Z,53.22
2023-02-19T15:25:24.684Z,53.96
2023-02-19T15:26:24.696Z,53.45
2023-02-19T15:27:24.671Z,53.76
2023-02-19T15:28:24.676Z,53.24
2023-02-19T15:29:24.641Z,52.11
2023-02-19T15:30:24.745Z,52.29
2023-02-19T15:31:24.741Z,51.87
2023-02-19T15:32:24.668Z,51.67
2023-02-19T15:33:24.600Z,51.46
2023-02-19T15:34:24.681Z,51.26
2023-02-19T15:35:24.614Z,52.00
2023-02-19T15:36:24.562Z,52.83
2023-02-19T15:37:24.581Z,53.45
2023-02-19T15:38:24.593Z,53.58
2023-02-19T15:39:24.553Z,53.58
2023-02-19T15:40:24.539Z,53.78
2023-02-19T15:41:24.527Z,55.05
2023-02-19T15:42:24.521Z,54.94
2023-02-19T15:43:24.491Z,54.63
2023-02-19T15:44:25.128Z,54.32
2023-02-19T15:45:24.501Z,54.84
2023-02-19T15:46:24.517Z,54.74
2023-02-19T15:47:24.491Z,55.46
2023-02-19T15:48:24.469Z,55.46
2023-02-19T15:49:24.446Z,57.04
2023-02-19T15:50:24.456Z,56.08
2023-02-19T15:51:24.421Z,56.39
2023-02-19T15:52:24.400Z,56.93
2023-02-19T15:53:24.439Z,56.21
2023-02-19T15:54:27.139Z,56.31
2023-02-19T15:55:24.379Z,56.41
2023-02-19T15:56:24.354Z,56.41
2023-02-19T15:57:24.358Z,57.45
2023-02-19T15:58:24.336Z,56.93
2023-02-19T15:59:24.318Z,56.62
2023-02-19T16:00:24.448Z,56.34
2023-02-19T16:01:24.483Z,56.75
2023-02-19T16:02:25.798Z,56.75
2023-02-19T16:03:24.323Z,57.68
2023-02-19T16:04:24.276Z,56.75
2023-02-19T16:05:24.306Z,57.06
2023-02-19T16:06:24.244Z,57.48
2023-02-19T16:07:24.258Z,58.20
2023-02-19T16:08:24.408Z,58.30
2023-02-19T16:09:24.238Z,57.58
2023-02-19T16:10:24.243Z,57.89
2023-02-19T16:11:24.243Z,57.37
2023-02-19T16:12:24.185Z,57.68
2023-02-19T16:13:24.208Z,57.17
2023-02-19T16:14:24.191Z,57.40
2023-02-19T16:15:24.184Z,57.68
2023-02-19T16:16:24.198Z,57.92
2023-02-19T16:17:24.210Z,57.81
2023-02-19T16:18:24.129Z,57.40
2023-02-19T16:19:24.124Z,57.81
2023-02-19T16:20:24.101Z,58.12
2023-02-19T16:21:24.090Z,57.92
2023-02-19T16:22:24.143Z,58.02
2023-02-19T16:23:24.156Z,58.44
2023-02-19T16:24:24.056Z,58.44
2023-02-19T16:25:24.064Z,58.44
2023-02-19T16:26:24.151Z,58.33
2023-02-19T16:27:24.031Z,58.84
2023-02-19T16:28:24.033Z,58.23
2023-02-19T16:29:24.050Z,58.12
2023-02-19T16:30:24.020Z,58.95
2023-02-19T16:31:24.104Z,58.36
2023-02-19T16:32:24.506Z,58.67
2023-02-19T16:33:23.982Z,58.25
2023-02-19T16:34:23.937Z,58.67
2023-02-19T16:35:23.941Z,59.19
2023-02-19T16:36:23.943Z,59.60
2023-02-19T16:37:23.928Z,60.53
2023-02-19T16:38:23.957Z,59.80
2023-02-19T16:39:23.916Z,60.11
2023-02-19T16:40:23.879Z,60.42
2023-02-19T16:41:23.950Z,60.74
2023-02-19T16:42:23.876Z,60.22
2023-02-19T16:43:23.871Z,61.15
2023-02-19T16:44:23.863Z,60.42
2023-02-19T16:45:25.928Z,60.94
2023-02-19T16:46:23.826Z,61.38
2023-02-19T16:47:23.846Z,61.15
2023-02-19T16:48:23.834Z,61.15
2023-02-19T16:49:23.791Z,60.66
2023-02-19T16:50:23.817Z,60.97
2023-02-19T16:51:23.784Z,61.80
2023-02-19T16:52:23.754Z,61.18
2023-02-19T16:53:23.778Z,61.07
2023-02-19T16:54:23.757Z,61.69
2023-02-19T16:55:23.749Z,61.38
2023-02-19T16:56:23.743Z,61.69
2023-02-19T16:57:23.718Z,62.11
2023-02-19T16:58:23.704Z,61.69
2023-02-19T16:59:23.690Z,61.80
2023-02-19T17:00:23.677Z,62.21
2023-02-19T17:01:23.728Z,61.90
2023-02-19T17:02:23.719Z,62.11
2023-02-19T17:03:23.742Z,62.84
2023-02-19T17:04:23.697Z,62.84
2023-02-19T17:05:23.700Z,61.59
2023-02-19T17:06:23.666Z,62.01
2023-02-19T17:07:23.623Z,63.25
2023-02-19T17:08:23.724Z,63.15
2023-02-19T17:09:23.641Z,62.84
2023-02-19T17:10:23.611Z,62.45
2023-02-19T17:11:23.564Z,63.07
2023-02-19T17:12:23.600Z,63.07
2023-02-19T17:13:23.611Z,62.97
2023-02-19T17:14:23.625Z,63.07
2023-02-19T17:15:23.579Z,63.38
2023-02-19T17:16:23.608Z,63.48
2023-02-19T17:17:23.576Z,63.59
2023-02-19T17:18:23.564Z,63.69
2023-02-19T17:19:23.540Z,63.72
2023-02-19T17:20:23.515Z,64.34
2023-02-19T17:21:23.518Z,64.45
2023-02-19T17:22:23.548Z,64.24
2023-02-19T17:23:24.541Z,64.55
2023-02-19T17:24:23.489Z,64.76
2023-02-19T17:25:23.471Z,64.45
2023-02-19T17:26:23.448Z,64.97
2023-02-19T17:27:23.456Z,64.86
2023-02-19T17:28:23.448Z,65.28
2023-02-19T17:29:23.429Z,65.80
2023-02-19T17:30:23.485Z,65.80
2023-02-19T17:31:23.478Z,65.59
2023-02-19T17:32:23.497Z,65.83
2023-02-19T17:33:23.397Z,66.62
2023-02-19T17:34:23.460Z,67.07
2023-02-19T17:35:23.384Z,66.75
2023-02-19T17:36:23.350Z,66.55
2023-02-19T17:37:23.354Z,66.44
2023-02-19T17:38:23.338Z,66.96
2023-02-19T17:39:23.324Z,66.96
2023-02-19T17:40:32.175Z,67.07
2023-02-19T17:41:23.304Z,67.17
2023-02-19T17:42:23.304Z,67.79
2023-02-19T17:43:25.376Z,68.00
2023-02-19T17:44:24.971Z,67.69
2023-02-19T17:45:23.249Z,67.27
2023-02-19T17:46:23.272Z,67.17
2023-02-19T17:47:23.252Z,67.27
2023-02-19T17:48:23.210Z,67.07
2023-02-19T17:49:23.226Z,67.20
2023-02-19T17:50:23.198Z,67.30
2023-02-19T17:51:23.196Z,67.20
2023-02-19T17:52:23.169Z,67.10